sensor_id;sensor_type;location;lat;lon;timestamp;P1;durP1;ratioP1;P2;durP2;ratioP2
80868;SDS011;70295;40.182;44.498;2024-01-25T00:47:24;10.1;;;5.2;;
80868;SDS011;70295;40.182;44.498;2024-01-25T04:17:20;7.2;;;3.6;;
80868;SDS011;70295;40.182;44.498;2024-01-25T04:19:20;5.8;;;3.3;;
80868;SDS011;70295;40.182;44.498;2024-01-25T04:21:20;6.7;;;3.8;;
80868;SDS011;70295;40.182;44.498;2024-01-25T04:23:20;7.9;;;4;;
80868;SDS011;70295;40.182;44.498;2024-01-25T04:25:20;6;;;3.7;;
80868;SDS011;70295;40.182;44.498;2024-01-25T04:27:20;9;;;4.2;;
80868;SDS011;70295;40.182;44.498;2024-01-25T04:29:20;8.1;;;3.9;;
80868;SDS011;70295;40.182;44.498;2024-01-25T04:31:20;7.4;;;3.8;;
80868;SDS011;70295;40.182;44.498;2024-01-25T04:33:20;6.6;;;3.7;;
80868;SDS011;70295;40.182;44.498;2024-01-25T04:35:20;7.1;;;3.6;;
80868;SDS011;70295;40.182;44.498;2024-01-25T04:37:20;8.6;;;3.6;;
80868;SDS011;70295;40.182;44.498;2024-01-25T04:39:20;5.5;;;3.2;;
80868;SDS011;70295;40.182;44.498;2024-01-25T04:41:20;6.7;;;3.1;;
80868;SDS011;70295;40.182;44.498;2024-01-25T04:43:20;7.1;;;3.5;;
80868;SDS011;70295;40.182;44.498;2024-01-25T04:45:20;8.1;;;3.8;;
80868;SDS011;70295;40.182;44.498;2024-01-25T04:47:20;6.8;;;3.5;;
80868;SDS011;70295;40.182;44.498;2024-01-25T04:49:20;7.4;;;4.1;;
80868;SDS011;70295;40.182;44.498;2024-01-25T05:18:41;6.8;;;4;;
80868;SDS011;70295;40.182;44.498;2024-01-25T05:20:41;4.6;;;3.1;;
80868;SDS011;70295;40.182;44.498;2024-01-25T05:47:56;6.2;;;3.8;;
80868;SDS011;70295;40.182;44.498;2024-01-25T05:49:55;5.9;;;4.1;;
80868;SDS011;70295;40.182;44.498;2024-01-25T05:51:55;7.3;;;4.6;;
80868;SDS011;70295;40.182;44.498;2024-01-25T05:53:55;7.8;;;4.4;;
80868;SDS011;70295;40.182;44.498;2024-01-25T05:55:55;7.4;;;4.7;;
80868;SDS011;70295;40.182;44.498;2024-01-25T05:57:55;6.7;;;4.1;;
80868;SDS011;70295;40.182;44.498;2024-01-25T05:59:56;6.8;;;4.4;;
80868;SDS011;70295;40.182;44.498;2024-01-25T06:01:55;8.4;;;4.7;;
80868;SDS011;70295;40.182;44.498;2024-01-25T06:03:55;7.1;;;4.3;;
80868;SDS011;70295;40.182;44.498;2024-01-25T06:05:55;8;;;4.6;;
80868;SDS011;70295;40.182;44.498;2024-01-25T06:07:55;8;;;4.4;;
80868;SDS011;70295;40.182;44.498;2024-01-25T07:00:48;9.4;;;5.8;;
80868;SDS011;70295;40.182;44.498;2024-01-25T07:02:48;13.2;;;5.8;;
80868;SDS011;70295;40.182;44.498;2024-01-25T07:05:48;11.1;;;6.1;;
80868;SDS011;70295;40.182;44.498;2024-01-25T07:07:47;10.1;;;6.5;;
80868;SDS011;70295;40.182;44.498;2024-01-25T07:09:47;12.5;;;7.2;;
80868;SDS011;70295;40.182;44.498;2024-01-25T07:11:47;12.1;;;7.3;;
80868;SDS011;70295;40.182;44.498;2024-01-25T07:18:26;12.7;;;8.5;;
80868;SDS011;70295;40.182;44.498;2024-01-25T07:20:26;15.6;;;9.5;;
80868;SDS011;70295;40.182;44.498;2024-01-25T07:22:26;15.9;;;9.5;;
80868;SDS011;70295;40.182;44.498;2024-01-25T07:24:26;16.7;;;9.6;;
80868;SDS011;70295;40.182;44.498;2024-01-25T07:30:25;15.7;;;9.5;;
80868;SDS011;70295;40.182;44.498;2024-01-25T07:53:27;17.2;;;10.1;;
80868;SDS011;70295;40.182;44.498;2024-01-25T07:55:27;14.4;;;9.7;;
80868;SDS011;70295;40.182;44.498;2024-01-25T07:57:27;16.5;;;9.8;;
80868;SDS011;70295;40.182;44.498;2024-01-25T08:01:46;18.5;;;10.8;;
80868;SDS011;70295;40.182;44.498;2024-01-25T08:04:22;17.2;;;10;;
80868;SDS011;70295;40.182;44.498;2024-01-25T08:06:22;16;;;10.4;;
80868;SDS011;70295;40.182;44.498;2024-01-25T08:08:22;18.6;;;11.2;;
80868;SDS011;70295;40.182;44.498;2024-01-25T08:10:22;14.9;;;9.4;;
80868;SDS011;70295;40.182;44.498;2024-01-25T08:12:22;19;;;11;;
80868;SDS011;70295;40.182;44.498;2024-01-25T08:14:22;16.9;;;10.9;;
80868;SDS011;70295;40.182;44.498;2024-01-25T08:26:40;19.6;;;11.2;;
80868;SDS011;70295;40.182;44.498;2024-01-25T08:41:41;18.6;;;11.3;;
80868;SDS011;70295;40.182;44.498;2024-01-25T08:44:42;16.9;;;11;;
80868;SDS011;70295;40.182;44.498;2024-01-25T08:56:49;12.1;;;8.1;;
80868;SDS011;70295;40.182;44.498;2024-01-25T09:02:47;11.8;;;7.9;;
80868;SDS011;70295;40.182;44.498;2024-01-25T09:04:47;11.9;;;7.8;;
80868;SDS011;70295;40.182;44.498;2024-01-25T09:06:47;12.4;;;8;;
80868;SDS011;70295;40.182;44.498;2024-01-25T09:08:47;10.6;;;7.5;;
80868;SDS011;70295;40.182;44.498;2024-01-25T09:10:47;10.2;;;7.1;;
80868;SDS011;70295;40.182;44.498;2024-01-25T09:12:47;12.3;;;7.9;;
80868;SDS011;70295;40.182;44.498;2024-01-25T09:15:02;12.7;;;7.4;;
80868;SDS011;70295;40.182;44.498;2024-01-25T10:50:44;15.6;;;9.8;;
80868;SDS011;70295;40.182;44.498;2024-01-25T10:52:44;15.7;;;9.4;;
80868;SDS011;70295;40.182;44.498;2024-01-25T11:02:44;13.1;;;7.7;;
80868;SDS011;70295;40.182;44.498;2024-01-25T11:09:32;14;;;8.8;;
80868;SDS011;70295;40.182;44.498;2024-01-25T11:11:32;15.5;;;8.5;;
80868;SDS011;70295;40.182;44.498;2024-01-25T11:13:32;13;;;8.3;;
80868;SDS011;70295;40.182;44.498;2024-01-25T11:15:36;15.3;;;8.6;;
80868;SDS011;70295;40.182;44.498;2024-01-25T11:17:32;14.3;;;9.2;;
80868;SDS011;70295;40.182;44.498;2024-01-25T11:19:33;14.9;;;9;;
80868;SDS011;70295;40.182;44.498;2024-01-25T11:23:32;12.1;;;7.9;;
80868;SDS011;70295;40.182;44.498;2024-01-25T11:25:33;13;;;8.9;;
80868;SDS011;70295;40.182;44.498;2024-01-25T11:27:32;12.7;;;7.9;;
80868;SDS011;70295;40.182;44.498;2024-01-25T11:34:06;15.1;;;9.1;;
80868;SDS011;70295;40.182;44.498;2024-01-25T11:36:06;13.2;;;8;;
80868;SDS011;70295;40.182;44.498;2024-01-25T11:38:06;14.6;;;8.5;;
80868;SDS011;70295;40.182;44.498;2024-01-25T11:40:07;11.7;;;8.7;;
80868;SDS011;70295;40.182;44.498;2024-01-25T11:42:07;11.7;;;8.1;;
80868;SDS011;70295;40.182;44.498;2024-01-25T11:44:06;11.1;;;7.8;;
80868;SDS011;70295;40.182;44.498;2024-01-25T11:45:41;11.8;;;7.6;;
80868;SDS011;70295;40.182;44.498;2024-01-25T11:47:42;13.6;;;8.3;;
80868;SDS011;70295;40.182;44.498;2024-01-25T11:51:58;14.7;;;8.9;;
80868;SDS011;70295;40.182;44.498;2024-01-25T11:53:59;13;;;7.8;;
80868;SDS011;70295;40.182;44.498;2024-01-25T11:55:58;11.1;;;7.6;;
80868;SDS011;70295;40.182;44.498;2024-01-25T11:57:58;13.1;;;8.3;;
80868;SDS011;70295;40.182;44.498;2024-01-25T12:10:18;14.5;;;8.6;;
80868;SDS011;70295;40.182;44.498;2024-01-25T12:12:35;12.7;;;8.3;;
80868;SDS011;70295;40.182;44.498;2024-01-25T12:14:33;12.3;;;8.1;;
80868;SDS011;70295;40.182;44.498;2024-01-25T12:16:33;15.4;;;9.1;;
80868;SDS011;70295;40.182;44.498;2024-01-25T12:18:33;12.9;;;8.7;;
80868;SDS011;70295;40.182;44.498;2024-01-25T12:20:35;12.5;;;8.4;;
80868;SDS011;70295;40.182;44.498;2024-01-25T12:22:33;11.7;;;8.1;;
80868;SDS011;70295;40.182;44.498;2024-01-25T12:23:47;13.2;;;8.5;;
80868;SDS011;70295;40.182;44.498;2024-01-25T12:26:35;11.7;;;7.7;;
80868;SDS011;70295;40.182;44.498;2024-01-25T12:28:32;12.9;;;8.9;;
80868;SDS011;70295;40.182;44.498;2024-01-25T12:30:32;12.1;;;8.5;;
80868;SDS011;70295;40.182;44.498;2024-01-25T12:32:32;13.1;;;7.7;;
80868;SDS011;70295;40.182;44.498;2024-01-25T12:34:32;11.5;;;8.1;;
80868;SDS011;70295;40.182;44.498;2024-01-25T12:36:32;12.4;;;8.4;;
80868;SDS011;70295;40.182;44.498;2024-01-25T12:38:32;13.6;;;8.3;;
80868;SDS011;70295;40.182;44.498;2024-01-25T12:40:32;10.2;;;7.3;;
80868;SDS011;70295;40.182;44.498;2024-01-25T12:44:17;12.3;;;7.1;;
80868;SDS011;70295;40.182;44.498;2024-01-25T12:46:58;10.6;;;7.5;;
80868;SDS011;70295;40.182;44.498;2024-01-25T12:48:58;14;;;8;;
80868;SDS011;70295;40.182;44.498;2024-01-25T12:50:58;12.3;;;7.6;;
80868;SDS011;70295;40.182;44.498;2024-01-25T12:52:58;11.1;;;7.3;;
80868;SDS011;70295;40.182;44.498;2024-01-25T12:54:58;11;;;8.1;;
80868;SDS011;70295;40.182;44.498;2024-01-25T12:56:58;10.2;;;7.3;;
80868;SDS011;70295;40.182;44.498;2024-01-25T12:58:58;10.4;;;7.6;;
80868;SDS011;70295;40.182;44.498;2024-01-25T13:00:58;12.9;;;8.1;;
80868;SDS011;70295;40.182;44.498;2024-01-25T13:02:58;10.5;;;7.2;;
80868;SDS011;70295;40.182;44.498;2024-01-25T13:04:58;10.6;;;7.2;;
80868;SDS011;70295;40.182;44.498;2024-01-25T13:06:58;13.1;;;7.8;;
80868;SDS011;70295;40.182;44.498;2024-01-25T13:08:58;13.1;;;7.5;;
80868;SDS011;70295;40.182;44.498;2024-01-25T13:10:58;14.6;;;8.2;;
80868;SDS011;70295;40.182;44.498;2024-01-25T13:12:58;11.4;;;7.4;;
80868;SDS011;70295;40.182;44.498;2024-01-25T13:14:58;11;;;7.8;;
80868;SDS011;70295;40.182;44.498;2024-01-25T13:16:58;11.5;;;8.1;;
80868;SDS011;70295;40.182;44.498;2024-01-25T13:18:58;11.9;;;7.8;;
80868;SDS011;70295;40.182;44.498;2024-01-25T13:21:58;10.6;;;7.3;;
80868;SDS011;70295;40.182;44.498;2024-01-25T13:24:00;11.7;;;7.4;;
80868;SDS011;70295;40.182;44.498;2024-01-25T13:25:58;13.2;;;8.4;;
80868;SDS011;70295;40.182;44.498;2024-01-25T13:27:58;11.2;;;7.5;;
80868;SDS011;70295;40.182;44.498;2024-01-25T13:29:58;12.5;;;8;;
80868;SDS011;70295;40.182;44.498;2024-01-25T13:32:16;13.6;;;8.3;;
80868;SDS011;70295;40.182;44.498;2024-01-25T13:34:16;12.8;;;7.9;;
80868;SDS011;70295;40.182;44.498;2024-01-25T13:36:16;15.2;;;7.9;;
80868;SDS011;70295;40.182;44.498;2024-01-25T13:38:16;12.2;;;8;;
80868;SDS011;70295;40.182;44.498;2024-01-25T13:40:16;13.3;;;8.6;;
80868;SDS011;70295;40.182;44.498;2024-01-25T13:42:16;13.9;;;9;;
80868;SDS011;70295;40.182;44.498;2024-01-25T13:44:16;15.3;;;9.2;;
80868;SDS011;70295;40.182;44.498;2024-01-25T13:46:16;14.9;;;9.4;;
80868;SDS011;70295;40.182;44.498;2024-01-25T13:48:16;14.6;;;9.4;;
80868;SDS011;70295;40.182;44.498;2024-01-25T13:50:16;16.2;;;9.4;;
80868;SDS011;70295;40.182;44.498;2024-01-25T13:52:19;15.9;;;9.3;;
80868;SDS011;70295;40.182;44.498;2024-01-25T13:54:16;14.4;;;8.8;;
80868;SDS011;70295;40.182;44.498;2024-01-25T13:56:16;15.6;;;9.4;;
80868;SDS011;70295;40.182;44.498;2024-01-25T13:59:42;15;;;8.9;;
80868;SDS011;70295;40.182;44.498;2024-01-25T14:03:41;16.5;;;9.9;;
80868;SDS011;70295;40.182;44.498;2024-01-25T14:05:41;16.1;;;10.2;;
80868;SDS011;70295;40.182;44.498;2024-01-25T14:07:41;18.4;;;11.3;;
80868;SDS011;70295;40.182;44.498;2024-01-25T14:09:41;17.2;;;10.9;;
80868;SDS011;70295;40.182;44.498;2024-01-25T14:11:41;19.4;;;11.7;;
80868;SDS011;70295;40.182;44.498;2024-01-25T14:13:42;20;;;11.3;;
80868;SDS011;70295;40.182;44.498;2024-01-25T14:15:41;17.9;;;11.3;;
80868;SDS011;70295;40.182;44.498;2024-01-25T14:18:57;18.9;;;9.8;;
80868;SDS011;70295;40.182;44.498;2024-01-25T14:20:30;15.3;;;9.8;;
80868;SDS011;70295;40.182;44.498;2024-01-25T14:22:31;16.9;;;10.1;;
80868;SDS011;70295;40.182;44.498;2024-01-25T14:25:53;16.3;;;9.5;;
80868;SDS011;70295;40.182;44.498;2024-01-25T14:27:53;15.5;;;9;;
80868;SDS011;70295;40.182;44.498;2024-01-25T14:38:49;13.7;;;9.4;;
80868;SDS011;70295;40.182;44.498;2024-01-25T14:43:11;15.6;;;9.9;;
80868;SDS011;70295;40.182;44.498;2024-01-25T14:49:49;21.2;;;12.3;;
80868;SDS011;70295;40.182;44.498;2024-01-25T14:54:45;21.7;;;13.7;;
80868;SDS011;70295;40.182;44.498;2024-01-25T14:57:38;20.8;;;12;;
80868;SDS011;70295;40.182;44.498;2024-01-25T14:59:36;22.7;;;12.8;;
80868;SDS011;70295;40.182;44.498;2024-01-25T15:01:36;19.9;;;12.4;;
80868;SDS011;70295;40.182;44.498;2024-01-25T15:03:36;22.7;;;13.2;;
80868;SDS011;70295;40.182;44.498;2024-01-25T15:05:36;21.5;;;12.8;;
80868;SDS011;70295;40.182;44.498;2024-01-25T15:07:36;22;;;13.3;;
80868;SDS011;70295;40.182;44.498;2024-01-25T15:09:36;19.4;;;12.8;;
80868;SDS011;70295;40.182;44.498;2024-01-25T15:15:32;33.2;;;15.5;;
80868;SDS011;70295;40.182;44.498;2024-01-25T15:17:32;32.4;;;17.2;;
80868;SDS011;70295;40.182;44.498;2024-01-25T15:21:26;31.4;;;15.8;;
80868;SDS011;70295;40.182;44.498;2024-01-25T15:23:26;32.5;;;16.3;;
80868;SDS011;70295;40.182;44.498;2024-01-25T15:25:26;28.8;;;16.5;;
80868;SDS011;70295;40.182;44.498;2024-01-25T15:27:26;29.8;;;16.4;;
80868;SDS011;70295;40.182;44.498;2024-01-25T15:29:27;29.8;;;16.3;;
80868;SDS011;70295;40.182;44.498;2024-01-25T15:31:26;29.5;;;15.3;;
80868;SDS011;70295;40.182;44.498;2024-01-25T15:33:26;28.4;;;16.2;;
80868;SDS011;70295;40.182;44.498;2024-01-25T15:35:26;30.1;;;15.5;;
80868;SDS011;70295;40.182;44.498;2024-01-25T15:37:26;27.6;;;16.1;;
80868;SDS011;70295;40.182;44.498;2024-01-25T15:39:26;30.4;;;16.8;;
80868;SDS011;70295;40.182;44.498;2024-01-25T15:41:26;25.6;;;14.3;;
80868;SDS011;70295;40.182;44.498;2024-01-25T15:43:26;25.7;;;15.5;;
80868;SDS011;70295;40.182;44.498;2024-01-25T15:56:52;27.4;;;17.1;;
80868;SDS011;70295;40.182;44.498;2024-01-25T16:06:15;26.9;;;16.7;;
80868;SDS011;70295;40.182;44.498;2024-01-25T16:08:17;25.9;;;16.3;;
80868;SDS011;70295;40.182;44.498;2024-01-25T16:10:17;27;;;16.9;;
80868;SDS011;70295;40.182;44.498;2024-01-25T16:13:46;26.8;;;15.7;;
80868;SDS011;70295;40.182;44.498;2024-01-25T16:15:04;22.9;;;14.2;;
80868;SDS011;70295;40.182;44.498;2024-01-25T16:17:14;22.4;;;15;;
80868;SDS011;70295;40.182;44.498;2024-01-25T16:19:12;26.2;;;16.9;;
80868;SDS011;70295;40.182;44.498;2024-01-25T16:21:12;23.6;;;16.2;;
80868;SDS011;70295;40.182;44.498;2024-01-25T16:23:12;27.6;;;17.1;;
80868;SDS011;70295;40.182;44.498;2024-01-25T16:28:02;28.6;;;17.7;;
80868;SDS011;70295;40.182;44.498;2024-01-25T16:30:14;31.2;;;18.5;;
80868;SDS011;70295;40.182;44.498;2024-01-25T16:36:09;29.9;;;19.1;;
80868;SDS011;70295;40.182;44.498;2024-01-25T17:00:09;35.1;;;21;;
80868;SDS011;70295;40.182;44.498;2024-01-25T17:02:09;40;;;22;;
80868;SDS011;70295;40.182;44.498;2024-01-25T17:04:08;37.7;;;22.2;;
80868;SDS011;70295;40.182;44.498;2024-01-25T17:06:08;40.7;;;23.8;;
80868;SDS011;70295;40.182;44.498;2024-01-25T17:12:11;37.2;;;20.6;;
80868;SDS011;70295;40.182;44.498;2024-01-25T17:14:23;35.8;;;21.4;;
80868;SDS011;70295;40.182;44.498;2024-01-25T17:24:57;27.7;;;16.5;;
80868;SDS011;70295;40.182;44.498;2024-01-25T17:43:01;26.7;;;15.6;;
80868;SDS011;70295;40.182;44.498;2024-01-25T17:50:34;25.2;;;14.2;;
80868;SDS011;70295;40.182;44.498;2024-01-25T17:58:02;20.6;;;12.7;;
80868;SDS011;70295;40.182;44.498;2024-01-25T18:03:30;27.6;;;15.6;;
80868;SDS011;70295;40.182;44.498;2024-01-25T18:14:14;25.7;;;15.2;;
80868;SDS011;70295;40.182;44.498;2024-01-25T18:17:41;29;;;16.4;;
80868;SDS011;70295;40.182;44.498;2024-01-25T18:19:41;29.5;;;16.5;;
80868;SDS011;70295;40.182;44.498;2024-01-25T18:21:43;27.6;;;17.4;;
80868;SDS011;70295;40.182;44.498;2024-01-25T18:23:41;26.9;;;15.6;;
80868;SDS011;70295;40.182;44.498;2024-01-25T18:26:37;28.1;;;16.9;;
80868;SDS011;70295;40.182;44.498;2024-01-25T18:28:34;29.5;;;17.6;;
80868;SDS011;70295;40.182;44.498;2024-01-25T18:30:34;29.7;;;16.8;;
80868;SDS011;70295;40.182;44.498;2024-01-25T18:32:34;28.3;;;16.9;;
80868;SDS011;70295;40.182;44.498;2024-01-25T18:34:34;28.1;;;16.4;;
80868;SDS011;70295;40.182;44.498;2024-01-25T18:36:34;28.4;;;16.8;;
80868;SDS011;70295;40.182;44.498;2024-01-25T18:38:34;30.3;;;17.1;;
80868;SDS011;70295;40.182;44.498;2024-01-25T18:40:34;31.6;;;17.2;;
80868;SDS011;70295;40.182;44.498;2024-01-25T18:42:34;33.7;;;18.8;;
80868;SDS011;70295;40.182;44.498;2024-01-25T18:44:38;29.3;;;18.4;;
80868;SDS011;70295;40.182;44.498;2024-01-25T18:46:34;33.4;;;19.1;;
80868;SDS011;70295;40.182;44.498;2024-01-25T18:48:34;32.9;;;19.4;;
80868;SDS011;70295;40.182;44.498;2024-01-25T18:56:27;34.8;;;19.7;;
80868;SDS011;70295;40.182;44.498;2024-01-25T19:09:04;33.8;;;18.9;;
80868;SDS011;70295;40.182;44.498;2024-01-25T19:14:22;34.9;;;19.3;;
80868;SDS011;70295;40.182;44.498;2024-01-25T19:16:42;29.2;;;18;;
80868;SDS011;70295;40.182;44.498;2024-01-25T19:18:42;35.8;;;19.7;;
80868;SDS011;70295;40.182;44.498;2024-01-25T19:20:42;31.7;;;18.5;;
80868;SDS011;70295;40.182;44.498;2024-01-25T19:22:42;34.6;;;18.9;;
80868;SDS011;70295;40.182;44.498;2024-01-25T19:27:25;27.6;;;16.5;;
80868;SDS011;70295;40.182;44.498;2024-01-25T19:32:11;26.3;;;15.5;;
80868;SDS011;70295;40.182;44.498;2024-01-25T19:52:02;23.4;;;14.2;;
80868;SDS011;70295;40.182;44.498;2024-01-25T19:54:02;30.8;;;16;;
80868;SDS011;70295;40.182;44.498;2024-01-25T20:42:54;26.2;;;15.3;;
80868;SDS011;70295;40.182;44.498;2024-01-25T20:44:59;30.4;;;16.6;;
80868;SDS011;70295;40.182;44.498;2024-01-25T20:46:59;26.4;;;16.5;;
80868;SDS011;70295;40.182;44.498;2024-01-25T20:52:05;30.7;;;17.1;;
80868;SDS011;70295;40.182;44.498;2024-01-25T21:03:50;27.6;;;15.3;;
80868;SDS011;70295;40.182;44.498;2024-01-25T21:05:40;30.5;;;15.6;;
80868;SDS011;70295;40.182;44.498;2024-01-25T21:22:48;26.7;;;15.9;;
80868;SDS011;70295;40.182;44.498;2024-01-25T21:24:48;31.5;;;17.6;;
80868;SDS011;70295;40.182;44.498;2024-01-25T21:26:48;35.1;;;20.6;;
80868;SDS011;70295;40.182;44.498;2024-01-25T21:30:44;36.9;;;20;;
80868;SDS011;70295;40.182;44.498;2024-01-25T21:32:43;39.5;;;21.5;;
80868;SDS011;70295;40.182;44.498;2024-01-25T21:34:43;35.4;;;21.5;;
80868;SDS011;70295;40.182;44.498;2024-01-25T21:36:43;38.3;;;21.2;;
80868;SDS011;70295;40.182;44.498;2024-01-25T21:38:43;38.5;;;21.1;;
80868;SDS011;70295;40.182;44.498;2024-01-25T21:43:58;43.1;;;22.7;;
80868;SDS011;70295;40.182;44.498;2024-01-25T21:50:47;41.5;;;22.2;;
80868;SDS011;70295;40.182;44.498;2024-01-25T22:24:48;45.1;;;26.4;;
80868;SDS011;70295;40.182;44.498;2024-01-25T22:26:48;49.7;;;27.5;;
80868;SDS011;70295;40.182;44.498;2024-01-25T22:42:32;47.2;;;24.9;;
80868;SDS011;70295;40.182;44.498;2024-01-25T22:44:32;45.9;;;24.7;;
80868;SDS011;70295;40.182;44.498;2024-01-25T22:47:14;46.8;;;24.5;;
80868;SDS011;70295;40.182;44.498;2024-01-25T22:50:33;45.1;;;24.8;;
80868;SDS011;70295;40.182;44.498;2024-01-25T22:52:33;47.3;;;25;;
80868;SDS011;70295;40.182;44.498;2024-01-25T22:54:33;48.8;;;25.6;;
80868;SDS011;70295;40.182;44.498;2024-01-25T22:56:33;46.5;;;24.9;;
80868;SDS011;70295;40.182;44.498;2024-01-25T22:58:33;48.2;;;27.4;;
80868;SDS011;70295;40.182;44.498;2024-01-25T23:00:36;49.8;;;27.7;;
80868;SDS011;70295;40.182;44.498;2024-01-25T23:02:36;46.9;;;26.7;;
80868;SDS011;70295;40.182;44.498;2024-01-25T23:04:36;50.3;;;26.7;;
80868;SDS011;70295;40.182;44.498;2024-01-25T23:06:36;48;;;27.2;;
80868;SDS011;70295;40.182;44.498;2024-01-25T23:08:36;48.3;;;25.4;;
80868;SDS011;70295;40.182;44.498;2024-01-25T23:10:36;49.7;;;27.3;;
80868;SDS011;70295;40.182;44.498;2024-01-25T23:12:36;47.8;;;26.8;;
80868;SDS011;70295;40.182;44.498;2024-01-25T23:14:36;48.6;;;26.8;;
80868;SDS011;70295;40.182;44.498;2024-01-25T23:16:36;48.5;;;26.7;;
80868;SDS011;70295;40.182;44.498;2024-01-25T23:18:36;47.5;;;26.5;;
80868;SDS011;70295;40.182;44.498;2024-01-25T23:20:36;49;;;27.6;;
80868;SDS011;70295;40.182;44.498;2024-01-25T23:22:36;50.9;;;28.7;;
80868;SDS011;70295;40.182;44.498;2024-01-25T23:24:36;47.8;;;27;;
80868;SDS011;70295;40.182;44.498;2024-01-25T23:26:37;46.1;;;26.9;;
80868;SDS011;70295;40.182;44.498;2024-01-25T23:28:36;48.5;;;25.9;;
80868;SDS011;70295;40.182;44.498;2024-01-25T23:30:36;46.7;;;26.9;;
80868;SDS011;70295;40.182;44.498;2024-01-25T23:32:36;51.2;;;28.5;;
80868;SDS011;70295;40.182;44.498;2024-01-25T23:35:07;50.4;;;28.6;;
80868;SDS011;70295;40.182;44.498;2024-01-25T23:37:07;53;;;28.7;;
80868;SDS011;70295;40.182;44.498;2024-01-25T23:39:07;48.9;;;27.7;;
80868;SDS011;70295;40.182;44.498;2024-01-25T23:41:07;50;;;27.1;;
80868;SDS011;70295;40.182;44.498;2024-01-25T23:43:07;54.4;;;29;;
80868;SDS011;70295;40.182;44.498;2024-01-25T23:46:52;47.1;;;25.7;;
80868;SDS011;70295;40.182;44.498;2024-01-25T23:48:52;46.6;;;25.1;;
80868;SDS011;70295;40.182;44.498;2024-01-25T23:50:52;46;;;23.8;;
80868;SDS011;70295;40.182;44.498;2024-01-25T23:52:52;46.3;;;23.4;;
80868;SDS011;70295;40.182;44.498;2024-01-25T23:54:52;48.6;;;23.2;;
80868;SDS011;70295;40.182;44.498;2024-01-25T23:56:52;45.9;;;25.1;;
80868;SDS011;70295;40.182;44.498;2024-01-25T23:58:52;42.5;;;23.2;;
